createdAt,value
2023-11-08T00:02:33.789Z,1.40
2023-11-08T00:07:25.584Z,1.30
2023-11-08T00:12:18.682Z,1.23
2023-11-08T00:17:10.494Z,1.40
2023-11-08T00:22:02.261Z,1.47
2023-11-08T00:26:55.177Z,1.17
2023-11-08T00:31:46.905Z,1.20
2023-11-08T00:36:38.627Z,1.27
2023-11-08T00:41:31.495Z,0.87
2023-11-08T00:46:24.648Z,0.90
2023-11-08T00:51:16.531Z,1.10
2023-11-08T00:56:08.339Z,1.27
2023-11-08T01:01:00.049Z,0.90
2023-11-08T01:05:51.783Z,1.20
2023-11-08T01:10:44.106Z,1.27
2023-11-08T01:15:37.858Z,1.33
2023-11-08T01:20:29.683Z,1.00
2023-11-08T01:25:21.542Z,1.00
2023-11-08T01:30:13.763Z,1.00
2023-11-08T01:35:06.212Z,1.00
2023-11-08T01:39:59.132Z,0.70
2023-11-08T01:44:50.872Z,0.70
2023-11-08T01:49:45.203Z,0.70
2023-11-08T01:54:37.930Z,0.80
2023-11-08T01:59:31.986Z,1.00
2023-11-08T02:04:24.170Z,0.83
2023-11-08T02:09:17.933Z,1.00
2023-11-08T02:14:09.699Z,1.07
2023-11-08T02:19:01.500Z,1.00
2023-11-08T02:23:53.290Z,1.00
2023-11-08T02:28:45.022Z,1.00
2023-11-08T02:33:36.931Z,1.83
2023-11-08T02:38:29.090Z,0.80
2023-11-08T02:43:21.845Z,0.90
2023-11-08T02:48:13.782Z,1.00
2023-11-08T02:53:06.051Z,0.70
2023-11-08T02:57:58.133Z,1.00
2023-11-08T03:02:52.268Z,0.70
2023-11-08T03:07:45.833Z,1.07
2023-11-08T03:12:37.576Z,0.80
2023-11-08T03:17:30.094Z,1.10
2023-11-08T03:22:22.017Z,1.00
2023-11-08T03:27:14.533Z,1.07
2023-11-08T03:32:06.313Z,1.00
2023-11-08T03:36:58.016Z,0.80
2023-11-08T03:41:49.748Z,1.00
2023-11-08T03:46:43.205Z,0.77
2023-11-08T03:51:36.423Z,0.70
2023-11-08T03:56:31.074Z,1.30
2023-11-08T04:01:22.919Z,0.80
2023-11-08T04:06:14.864Z,0.73
2023-11-08T04:11:06.651Z,1.20
2023-11-08T04:15:58.574Z,1.00
2023-11-08T04:20:50.295Z,0.90
2023-11-08T04:25:44.597Z,1.10
2023-11-08T04:30:36.316Z,0.80
2023-11-08T04:35:28.037Z,0.80
2023-11-08T04:40:20.718Z,1.00
2023-11-08T04:45:13.583Z,1.10
2023-11-08T04:50:06.188Z,0.90
2023-11-08T04:54:59.021Z,1.10
2023-11-08T04:59:51.098Z,1.03
2023-11-08T05:04:47.021Z,1.07
2023-11-08T05:09:42.342Z,1.20
2023-11-08T05:14:35.145Z,0.97
2023-11-08T05:19:26.952Z,1.37
2023-11-08T05:24:18.828Z,1.10
2023-11-08T05:29:10.671Z,1.30
2023-11-08T05:34:03.825Z,1.00
2023-11-08T05:38:57.087Z,1.50
2023-11-08T05:43:50.299Z,1.80
2023-11-08T05:48:42.034Z,1.87
2023-11-08T05:53:33.767Z,1.27
2023-11-08T05:58:25.707Z,1.70
2023-11-08T06:03:17.566Z,1.70
2023-11-08T06:08:10.773Z,1.03
2023-11-08T06:13:03.773Z,1.30
2023-11-08T06:17:55.825Z,1.80
2023-11-08T06:22:49.007Z,1.80
2023-11-08T06:27:40.749Z,1.47
2023-11-08T06:32:32.536Z,2.40
2023-11-08T06:37:24.315Z,2.00
2023-11-08T06:42:16.462Z,2.30
2023-11-08T06:47:08.317Z,1.90
2023-11-08T06:52:00.102Z,2.23
2023-11-08T06:56:51.980Z,1.90
2023-11-08T07:01:43.685Z,2.00
2023-11-08T07:06:35.544Z,2.00
2023-11-08T07:11:28.492Z,2.20
2023-11-08T07:26:33.508Z,1.80
2023-11-08T07:31:26.041Z,1.87
2023-11-08T07:36:17.825Z,2.60
2023-11-08T07:46:15.297Z,1.47
2023-11-08T07:51:10.070Z,1.43
2023-11-08T07:56:02.156Z,2.27
2023-11-08T08:06:02.131Z,1.07
2023-11-08T08:10:54.526Z,1.37
2023-11-08T08:15:46.368Z,2.10
2023-11-08T08:20:41.321Z,2.10
2023-11-08T08:25:34.559Z,1.87
2023-11-08T08:36:18.680Z,1.03
2023-11-08T08:41:37.155Z,1.10
2023-11-08T08:46:31.268Z,1.23
2023-11-08T08:51:23.032Z,1.53
2023-11-08T08:56:14.844Z,0.83
2023-11-08T09:01:09.587Z,0.83
2023-11-08T09:06:01.406Z,1.60
2023-11-08T09:16:17.626Z,1.10
2023-11-08T09:21:11.584Z,0.73
2023-11-08T09:26:03.917Z,0.60
2023-11-08T09:30:56.515Z,0.73
2023-11-08T09:35:48.368Z,0.60
2023-11-08T09:40:40.221Z,0.60
2023-11-08T09:45:33.247Z,0.80
2023-11-08T09:50:26.102Z,0.60
2023-11-08T09:55:18.750Z,1.20
2023-11-08T10:05:17.732Z,0.73
2023-11-08T10:10:10.205Z,0.77
2023-11-08T10:15:04.818Z,0.83
2023-11-08T10:19:59.170Z,0.97
2023-11-08T10:24:56.399Z,0.83
2023-11-08T10:29:48.977Z,0.90
2023-11-08T10:34:40.711Z,0.80
2023-11-08T10:39:32.667Z,0.90
2023-11-08T10:44:30.657Z,0.67
2023-11-08T10:49:25.222Z,1.07
2023-11-08T11:42:26.350Z,1.03
2023-11-08T11:57:44.662Z,1.20
2023-11-08T12:02:37.108Z,1.20
2023-11-08T12:07:29.091Z,1.17
2023-11-08T12:12:30.237Z,1.60
2023-11-08T12:17:29.088Z,1.10
2023-11-08T12:27:30.381Z,0.90
2023-11-08T12:32:22.163Z,0.90
2023-11-08T12:37:15.175Z,1.00
2023-11-08T12:42:16.126Z,1.00
2023-11-08T12:47:16.719Z,1.10
2023-11-08T12:52:14.697Z,0.90
2023-11-08T12:57:06.671Z,0.90
2023-11-08T13:02:07.155Z,0.95
2023-11-08T13:06:59.358Z,0.93
2023-11-08T13:11:51.109Z,1.00
2023-11-08T13:16:42.860Z,0.90
2023-11-08T13:21:34.816Z,1.13
2023-11-08T13:26:26.533Z,1.23
2023-11-08T13:31:18.785Z,0.70
2023-11-08T13:41:17.441Z,1.00
2023-11-08T13:46:09.574Z,1.17
2023-11-08T13:51:07.238Z,1.00
2023-11-08T13:55:58.980Z,0.60
2023-11-08T14:00:50.795Z,1.00
2023-11-08T14:05:42.622Z,0.70
2023-11-08T14:10:34.457Z,0.90
2023-11-08T14:15:26.478Z,0.90
2023-11-08T14:20:19.335Z,0.80
2023-11-08T14:25:11.174Z,1.33
2023-11-08T14:30:04.374Z,0.80
2023-11-08T14:34:56.784Z,1.20
2023-11-08T14:39:49.598Z,0.90
2023-11-08T14:44:41.676Z,1.00
2023-11-08T14:54:46.755Z,0.60
2023-11-08T14:59:38.498Z,1.00
2023-11-08T15:09:53.914Z,1.20
2023-11-08T15:14:48.729Z,1.40
2023-11-08T15:19:40.678Z,1.17
2023-11-08T15:24:32.526Z,1.10
2023-11-08T15:29:25.203Z,1.17
2023-11-08T15:44:30.818Z,1.03
2023-11-08T15:49:23.363Z,1.00
2023-11-08T15:54:15.257Z,1.23
2023-11-08T15:59:06.997Z,1.40
2023-11-08T16:09:07.976Z,1.40
2023-11-08T16:19:08.025Z,1.63
2023-11-08T16:24:00.040Z,1.57
2023-11-08T16:44:15.218Z,2.40
2023-11-08T16:54:18.458Z,2.20
2023-11-08T16:59:10.417Z,3.10
2023-11-08T17:04:02.939Z,2.80
2023-11-08T17:08:55.008Z,2.97
2023-11-08T17:13:46.782Z,2.90
2023-11-08T17:18:38.786Z,3.87
2023-11-08T17:23:30.735Z,4.20
2023-11-08T17:33:29.942Z,3.93
2023-11-08T17:43:30.573Z,4.77
2023-11-08T17:48:22.685Z,4.63
2023-11-08T17:53:15.081Z,5.30
2023-11-08T17:58:07.324Z,5.30
2023-11-08T18:02:59.201Z,5.93
2023-11-08T18:07:50.981Z,6.37
2023-11-08T18:18:05.541Z,4.80
2023-11-08T18:22:58.834Z,4.33
2023-11-08T18:27:50.900Z,6.40
2023-11-08T18:32:42.920Z,4.80
2023-11-08T18:42:42.868Z,4.70
2023-11-08T18:47:34.737Z,5.50
2023-11-08T18:52:26.856Z,5.07
2023-11-08T18:57:21.598Z,4.83
2023-11-08T19:07:20.484Z,5.43
2023-11-08T19:12:12.248Z,5.07
2023-11-08T19:17:04.200Z,4.50
2023-11-08T19:21:55.920Z,6.50
2023-11-08T19:26:47.884Z,9.77
2023-11-08T19:31:39.870Z,6.67
2023-11-08T19:36:31.593Z,8.33
2023-11-08T19:41:25.368Z,8.77
2023-11-08T19:51:23.136Z,9.13
2023-11-08T19:56:17.219Z,14.53
2023-11-08T21:55:45.702Z,7.27
2023-11-08T22:00:37.882Z,7.50
2023-11-08T22:05:29.733Z,6.17
2023-11-08T22:10:22.688Z,7.03
2023-11-08T22:15:14.808Z,6.20
2023-11-08T22:20:11.758Z,5.17
2023-11-08T22:25:03.924Z,7.47
2023-11-08T22:29:55.761Z,10.13
2023-11-08T22:34:47.474Z,7.80
2023-11-08T22:39:39.305Z,6.80
2023-11-08T22:44:31.009Z,4.97
2023-11-08T22:49:22.785Z,4.20
2023-11-08T22:54:14.638Z,4.53
2023-11-08T22:59:06.466Z,5.63
2023-11-08T23:14:10.257Z,5.20
2023-11-08T23:19:02.051Z,4.97
2023-11-08T23:23:53.797Z,10.27
2023-11-08T23:28:45.816Z,4.70
2023-11-08T23:33:37.708Z,6.57
2023-11-08T23:38:29.641Z,8.03
2023-11-08T23:43:22.197Z,8.27
2023-11-08T23:48:14.167Z,7.87
2023-11-08T23:53:06.043Z,7.83
2023-11-08T23:57:57.763Z,7.43
